createdAt,value
2023-03-28T00:02:08.256Z,1.00
2023-03-28T00:04:37.441Z,0.90
2023-03-28T00:07:05.693Z,0.98
2023-03-28T00:09:33.276Z,0.77
2023-03-28T00:11:59.964Z,0.75
2023-03-28T00:14:26.709Z,1.00
2023-03-28T00:16:53.471Z,1.00
2023-03-28T00:19:20.883Z,1.00
2023-03-28T00:21:50.011Z,0.80
2023-03-28T00:24:18.848Z,0.75
2023-03-28T00:26:46.108Z,1.00
2023-03-28T00:29:16.669Z,0.80
2023-03-28T00:31:43.457Z,0.90
2023-03-28T00:34:10.415Z,0.80
2023-03-28T00:36:39.912Z,0.80
2023-03-28T00:39:06.983Z,0.90
2023-03-28T00:41:37.075Z,0.80
2023-03-28T00:44:41.945Z,0.90
2023-03-28T00:47:27.599Z,0.90
2023-03-28T00:49:59.264Z,0.90
2023-03-28T00:52:29.882Z,0.90
2023-03-28T00:54:57.681Z,0.90
2023-03-28T00:57:28.113Z,0.90
2023-03-28T00:59:55.080Z,0.80
2023-03-28T01:02:22.756Z,0.75
2023-03-28T01:05:00.035Z,0.90
2023-03-28T01:07:29.473Z,0.80
2023-03-28T01:09:56.548Z,0.80
2023-03-28T01:12:23.946Z,0.90
2023-03-28T01:14:51.679Z,0.80
2023-03-28T01:17:18.674Z,0.82
2023-03-28T01:20:27.180Z,0.80
2023-03-28T01:23:17.102Z,1.00
2023-03-28T01:26:21.688Z,0.88
2023-03-28T01:29:00.283Z,0.90
2023-03-28T01:34:27.230Z,0.70
2023-03-28T01:37:03.293Z,0.77
2023-03-28T01:39:37.866Z,0.90
2023-03-28T01:42:29.385Z,0.90
2023-03-28T01:45:24.615Z,0.70
2023-03-28T01:48:11.509Z,0.82
2023-03-28T01:51:12.636Z,0.80
2023-03-28T01:53:47.723Z,0.80
2023-03-28T01:56:30.740Z,0.90
2023-03-28T01:59:38.605Z,0.80
2023-03-28T02:02:32.454Z,0.80
2023-03-28T02:05:09.365Z,0.60
2023-03-28T02:07:40.113Z,0.80
2023-03-28T02:10:11.218Z,0.90
2023-03-28T02:13:15.134Z,0.80
2023-03-28T02:15:54.711Z,0.90
2023-03-28T02:18:44.781Z,0.80
2023-03-28T02:21:36.608Z,0.80
2023-03-28T02:24:26.079Z,0.90
2023-03-28T02:27:22.851Z,0.90
2023-03-28T02:29:58.892Z,0.60
2023-03-28T02:32:34.454Z,0.80
2023-03-28T02:35:03.323Z,0.70
2023-03-28T02:37:50.654Z,0.90
2023-03-28T02:40:39.178Z,0.88
2023-03-28T02:43:31.742Z,0.80
2023-03-28T02:46:06.248Z,0.70
2023-03-28T02:48:47.363Z,0.73
2023-03-28T02:51:40.611Z,0.80
2023-03-28T02:54:26.070Z,0.88
2023-03-28T02:57:27.377Z,1.00
2023-03-28T03:00:01.296Z,0.80
2023-03-28T03:02:30.176Z,0.90
2023-03-28T03:04:57.850Z,0.90
2023-03-28T03:07:25.230Z,0.98
2023-03-28T03:09:53.894Z,1.00
2023-03-28T03:12:21.406Z,0.90
2023-03-28T03:14:50.915Z,1.00
2023-03-28T03:17:36.801Z,0.90
2023-03-28T03:20:06.827Z,0.90
2023-03-28T03:22:37.591Z,0.88
2023-03-28T03:25:08.164Z,0.80
2023-03-28T03:28:01.670Z,1.00
2023-03-28T03:30:31.804Z,1.00
2023-03-28T03:33:17.555Z,0.88
2023-03-28T03:35:47.406Z,0.90
2023-03-28T03:38:15.814Z,1.08
2023-03-28T03:40:42.660Z,0.90
2023-03-28T03:43:10.223Z,1.00
2023-03-28T03:45:40.652Z,1.13
2023-03-28T03:48:08.880Z,1.08
2023-03-28T03:50:36.586Z,0.90
2023-03-28T03:53:09.415Z,0.95
2023-03-28T03:55:41.428Z,0.93
2023-03-28T03:58:08.323Z,0.90
2023-03-28T04:00:37.772Z,0.80
2023-03-28T04:03:08.753Z,0.95
2023-03-28T04:05:52.896Z,1.00
2023-03-28T04:08:19.650Z,0.70
2023-03-28T04:10:48.115Z,0.80
2023-03-28T04:13:15.547Z,0.80
2023-03-28T04:15:46.668Z,0.80
2023-03-28T04:18:51.053Z,1.10
2023-03-28T04:21:25.889Z,0.82
2023-03-28T04:23:55.303Z,1.00
2023-03-28T04:26:26.776Z,0.80
2023-03-28T04:29:04.199Z,0.80
2023-03-28T04:31:35.740Z,0.80
2023-03-28T04:34:20.128Z,1.00
2023-03-28T04:37:03.729Z,0.73
2023-03-28T04:39:35.806Z,0.75
2023-03-28T04:42:22.796Z,0.70
2023-03-28T04:45:08.960Z,0.77
2023-03-28T04:47:39.943Z,0.77
2023-03-28T04:50:13.159Z,0.80
2023-03-28T04:52:40.507Z,0.80
2023-03-28T04:55:07.942Z,0.90
2023-03-28T04:57:37.163Z,0.90
2023-03-28T05:00:10.018Z,0.90
2023-03-28T05:03:13.873Z,0.70
2023-03-28T05:05:52.567Z,0.82
2023-03-28T05:08:22.658Z,0.77
2023-03-28T05:10:50.615Z,0.80
2023-03-28T05:13:18.138Z,0.90
2023-03-28T05:15:56.630Z,0.70
2023-03-28T05:18:43.599Z,0.82
2023-03-28T05:21:11.277Z,0.80
2023-03-28T05:23:38.009Z,0.70
2023-03-28T05:26:14.209Z,0.70
2023-03-28T05:28:41.307Z,0.80
2023-03-28T05:31:08.676Z,0.90
2023-03-28T05:33:35.627Z,0.90
2023-03-28T05:36:04.653Z,0.82
2023-03-28T05:38:33.759Z,0.93
2023-03-28T05:41:06.894Z,0.80
2023-03-28T05:43:33.992Z,0.70
2023-03-28T05:46:00.910Z,0.90
2023-03-28T05:51:04.769Z,0.80
2023-03-28T05:53:34.295Z,0.90
2023-03-28T05:56:00.981Z,0.70
2023-03-28T05:58:27.970Z,0.80
2023-03-28T06:00:56.567Z,0.80
2023-03-28T06:03:25.977Z,0.73
2023-03-28T06:05:52.767Z,0.82
2023-03-28T06:08:27.366Z,0.98
2023-03-28T06:10:54.156Z,0.90
2023-03-28T06:13:26.295Z,0.90
2023-03-28T06:15:53.786Z,0.95
2023-03-28T06:18:28.938Z,0.80
2023-03-28T06:20:56.091Z,0.80
2023-03-28T06:23:23.599Z,0.75
2023-03-28T06:25:50.812Z,0.73
2023-03-28T06:28:19.446Z,0.82
2023-03-28T06:31:14.113Z,0.90
2023-03-28T06:33:42.722Z,0.90
2023-03-28T06:36:11.652Z,1.10
2023-03-28T06:38:38.903Z,0.90
2023-03-28T06:41:06.115Z,0.70
2023-03-28T06:43:34.633Z,0.77
2023-03-28T06:46:09.559Z,0.80
2023-03-28T06:48:41.971Z,0.80
2023-03-28T06:51:24.217Z,0.77
2023-03-28T06:53:51.113Z,1.00
2023-03-28T06:56:23.172Z,0.82
2023-03-28T06:58:49.928Z,0.80
2023-03-28T07:01:21.341Z,0.75
2023-03-28T07:03:59.364Z,0.80
2023-03-28T07:06:27.761Z,1.27
2023-03-28T07:08:56.613Z,0.73
2023-03-28T07:11:30.929Z,0.70
2023-03-28T07:13:57.692Z,0.70
2023-03-28T07:16:24.642Z,0.80
2023-03-28T07:18:51.387Z,0.70
2023-03-28T07:21:27.305Z,0.80
2023-03-28T07:23:57.203Z,0.90
2023-03-28T07:26:29.015Z,0.80
2023-03-28T07:28:55.963Z,0.80
2023-03-28T07:31:24.683Z,0.75
2023-03-28T07:33:51.904Z,0.70
2023-03-28T07:36:21.240Z,0.60
2023-03-28T07:38:55.166Z,0.60
2023-03-28T07:41:24.826Z,0.65
2023-03-28T07:43:51.589Z,0.77
2023-03-28T07:46:21.163Z,0.82
2023-03-28T07:48:48.051Z,0.60
2023-03-28T07:51:16.312Z,0.60
2023-03-28T07:53:43.339Z,0.80
2023-03-28T07:56:10.745Z,0.82
2023-03-28T07:59:04.626Z,0.65
2023-03-28T08:01:32.230Z,0.60
2023-03-28T08:04:02.980Z,0.70
2023-03-28T08:06:52.254Z,1.00
2023-03-28T08:09:19.739Z,0.95
2023-03-28T08:11:48.658Z,0.88
2023-03-28T08:14:17.439Z,0.85
2023-03-28T08:16:45.377Z,0.80
2023-03-28T08:19:13.007Z,0.80
2023-03-28T08:22:02.657Z,0.70
2023-03-28T08:24:36.030Z,0.80
2023-03-28T08:27:12.046Z,1.00
2023-03-28T08:29:40.600Z,0.80
2023-03-28T08:32:07.802Z,0.70
2023-03-28T08:34:35.640Z,1.00
2023-03-28T08:37:08.680Z,1.00
2023-03-28T08:39:37.412Z,0.65
2023-03-28T08:42:19.307Z,1.00
2023-03-28T08:44:59.667Z,0.90
2023-03-28T08:47:34.516Z,0.80
2023-03-28T08:50:07.502Z,0.90
2023-03-28T08:52:34.502Z,0.70
2023-03-28T08:55:07.152Z,1.05
2023-03-28T08:57:35.032Z,1.00
2023-03-28T09:00:17.057Z,0.88
2023-03-28T09:02:44.279Z,0.70
2023-03-28T09:05:23.514Z,0.70
2023-03-28T09:08:04.383Z,0.70
2023-03-28T09:10:39.544Z,0.80
2023-03-28T09:13:28.257Z,0.85
2023-03-28T09:16:07.019Z,0.80
2023-03-28T09:19:05.819Z,0.80
2023-03-28T09:21:59.540Z,0.77
2023-03-28T09:25:27.275Z,0.70
2023-03-28T09:28:14.313Z,0.60
2023-03-28T09:30:47.210Z,0.60
2023-03-28T09:33:28.938Z,0.60
2023-03-28T09:35:57.691Z,0.40
2023-03-28T09:38:31.640Z,0.40
2023-03-28T09:40:59.731Z,0.45
2023-03-28T09:43:53.116Z,0.50
2023-03-28T09:46:47.065Z,0.50
2023-03-28T09:49:43.273Z,0.50
2023-03-28T09:52:19.110Z,0.50
2023-03-28T09:54:46.474Z,0.55
2023-03-28T09:57:13.275Z,0.70
2023-03-28T10:00:07.867Z,0.60
2023-03-28T10:02:54.860Z,0.55
2023-03-28T10:05:34.816Z,0.52
2023-03-28T10:08:36.243Z,0.60
2023-03-28T10:11:22.832Z,0.50
2023-03-28T10:13:51.582Z,0.75
2023-03-28T10:16:27.250Z,0.50
2023-03-28T10:19:22.181Z,0.52
2023-03-28T10:22:21.141Z,0.63
2023-03-28T10:24:51.453Z,0.75
2023-03-28T10:27:26.902Z,0.50
2023-03-28T10:29:55.981Z,0.50
2023-03-28T10:32:31.286Z,0.60
2023-03-28T10:35:28.082Z,0.50
2023-03-28T10:38:27.187Z,0.45
2023-03-28T10:41:23.274Z,0.57
2023-03-28T10:44:26.654Z,0.70
2023-03-28T10:47:07.335Z,0.70
2023-03-28T10:49:47.758Z,0.77
2023-03-28T10:52:25.890Z,0.80
2023-03-28T10:55:11.981Z,0.50
2023-03-28T10:57:57.468Z,0.70
2023-03-28T11:00:32.004Z,0.60
2023-03-28T11:03:44.621Z,0.77
2023-03-28T11:06:17.580Z,0.70
2023-03-28T11:08:52.517Z,0.52
2023-03-28T11:11:44.277Z,0.60
2023-03-28T11:16:44.009Z,0.52
2023-03-28T11:19:47.370Z,0.60
2023-03-28T11:24:46.738Z,0.50
2023-03-28T11:27:51.074Z,0.80
2023-03-28T11:30:39.598Z,0.70
2023-03-28T11:33:33.456Z,0.60
2023-03-28T11:36:35.233Z,0.80
2023-03-28T11:39:10.826Z,0.80
2023-03-28T11:41:39.869Z,0.80
2023-03-28T11:46:47.199Z,1.05
2023-03-28T11:49:22.516Z,0.77
2023-03-28T11:52:00.998Z,1.10
2023-03-28T11:54:32.687Z,0.85
2023-03-28T11:57:13.369Z,0.68
2023-03-28T12:00:26.339Z,0.70
2023-03-28T12:03:29.072Z,0.70
2023-03-28T12:06:18.135Z,0.80
2023-03-28T12:08:50.058Z,0.80
2023-03-28T12:11:24.251Z,0.60
2023-03-28T12:14:23.546Z,0.80
2023-03-28T12:16:52.622Z,0.80
2023-03-28T12:19:35.431Z,0.70
2023-03-28T12:22:19.669Z,0.70
2023-03-28T12:24:56.991Z,0.80
2023-03-28T12:27:42.925Z,0.80
2023-03-28T12:30:23.771Z,0.88
2023-03-28T12:33:14.475Z,0.75
2023-03-28T12:36:12.366Z,0.80
2023-03-28T12:38:48.359Z,0.75
2023-03-28T12:41:41.252Z,0.80
2023-03-28T12:44:24.493Z,0.70
2023-03-28T12:47:06.699Z,1.03
2023-03-28T12:49:41.658Z,0.80
2023-03-28T12:52:26.426Z,0.70
2023-03-28T12:55:00.321Z,0.90
2023-03-28T12:57:41.478Z,0.80
2023-03-28T13:00:35.474Z,0.80
2023-03-28T13:03:33.292Z,0.80
2023-03-28T13:06:24.865Z,0.82
2023-03-28T13:09:05.092Z,0.95
2023-03-28T13:11:44.966Z,0.80
2023-03-28T13:14:34.957Z,0.85
2023-03-28T13:17:01.639Z,0.80
2023-03-28T13:19:56.114Z,0.90
2023-03-28T13:22:25.831Z,0.85
2023-03-28T13:24:52.794Z,0.80
2023-03-28T13:27:33.295Z,0.70
2023-03-28T13:30:05.189Z,0.90
2023-03-28T13:32:38.826Z,0.90
2023-03-28T13:35:06.120Z,1.10
2023-03-28T13:37:47.335Z,1.00
2023-03-28T13:40:43.277Z,1.00
2023-03-28T13:46:14.746Z,0.90
2023-03-28T13:48:45.240Z,1.08
2023-03-28T13:51:16.069Z,0.85
2023-03-28T13:53:48.144Z,0.80
2023-03-28T13:56:23.600Z,0.90
2023-03-28T14:01:25.059Z,0.95
2023-03-28T14:03:52.531Z,1.17
2023-03-28T14:06:30.114Z,1.00
2023-03-28T14:09:01.152Z,1.00
2023-03-28T14:11:35.699Z,1.02
2023-03-28T14:14:09.372Z,0.90
2023-03-28T14:16:36.622Z,0.93
2023-03-28T14:19:04.165Z,1.20
2023-03-28T14:21:31.910Z,0.95
2023-03-28T14:24:05.970Z,1.00
2023-03-28T14:26:35.517Z,1.08
2023-03-28T14:29:05.695Z,0.98
2023-03-28T14:31:37.030Z,0.90
2023-03-28T14:34:24.168Z,1.05
2023-03-28T14:37:09.831Z,1.20
2023-03-28T14:39:39.029Z,0.95
2023-03-28T14:42:08.482Z,0.90
2023-03-28T14:44:38.228Z,0.95
2023-03-28T14:47:05.145Z,0.90
2023-03-28T14:49:32.766Z,1.10
2023-03-28T14:52:03.478Z,0.95
2023-03-28T14:54:39.418Z,1.00
2023-03-28T14:57:06.502Z,0.93
2023-03-28T14:59:41.315Z,0.90
2023-03-28T15:02:29.886Z,0.93
2023-03-28T15:05:00.154Z,0.90
2023-03-28T15:07:28.632Z,0.90
2023-03-28T15:10:04.492Z,1.00
2023-03-28T15:12:32.697Z,1.00
2023-03-28T15:14:59.435Z,0.82
2023-03-28T15:17:26.667Z,1.23
2023-03-28T15:19:56.039Z,1.00
2023-03-28T15:22:29.451Z,1.15
2023-03-28T15:24:57.129Z,0.90
2023-03-28T15:27:28.606Z,1.08
2023-03-28T15:29:56.043Z,1.00
2023-03-28T15:32:22.947Z,0.82
2023-03-28T15:35:05.098Z,1.00
2023-03-28T15:37:41.722Z,1.00
2023-03-28T15:40:31.216Z,1.00
2023-03-28T15:42:58.172Z,1.00
2023-03-28T15:45:37.641Z,0.95
2023-03-28T15:48:04.765Z,1.10
2023-03-28T15:50:38.547Z,1.02
2023-03-28T15:53:07.664Z,1.20
2023-03-28T15:55:35.022Z,1.00
2023-03-28T15:58:03.637Z,0.90
2023-03-28T16:00:36.522Z,0.90
2023-03-28T16:03:25.402Z,1.10
2023-03-28T16:06:09.876Z,1.00
2023-03-28T16:08:41.688Z,1.10
2023-03-28T16:11:15.634Z,1.23
2023-03-28T16:14:02.713Z,1.40
2023-03-28T16:16:53.250Z,1.10
2023-03-28T16:19:28.256Z,1.40
2023-03-28T16:21:55.365Z,1.30
2023-03-28T16:24:22.028Z,1.10
2023-03-28T16:26:49.062Z,1.10
2023-03-28T16:29:15.814Z,1.20
2023-03-28T16:31:43.487Z,1.17
2023-03-28T16:34:10.482Z,1.20
2023-03-28T16:36:38.238Z,1.10
2023-03-28T16:39:06.385Z,1.20
2023-03-28T16:41:33.191Z,1.13
2023-03-28T16:43:59.883Z,1.20
2023-03-28T16:46:26.688Z,1.20
2023-03-28T16:48:53.454Z,1.10
2023-03-28T16:51:20.329Z,1.15
2023-03-28T16:53:48.382Z,1.08
2023-03-28T16:56:15.519Z,1.30
2023-03-28T16:58:42.706Z,1.10
2023-03-28T17:01:19.392Z,1.00
2023-03-28T17:03:47.060Z,0.90
2023-03-28T17:06:14.971Z,0.93
2023-03-28T17:08:42.414Z,0.90
2023-03-28T17:11:11.765Z,1.08
2023-03-28T17:13:39.401Z,1.20
2023-03-28T17:16:07.855Z,1.00
2023-03-28T17:18:34.804Z,0.95
2023-03-28T17:21:07.095Z,1.10
2023-03-28T17:23:35.009Z,1.10
2023-03-28T17:26:02.266Z,1.10
2023-03-28T17:28:29.575Z,1.35
2023-03-28T17:30:56.893Z,1.20
2023-03-28T17:33:23.867Z,1.20
2023-03-28T17:35:50.928Z,1.30
2023-03-28T17:38:17.828Z,1.08
2023-03-28T17:40:51.367Z,1.30
2023-03-28T17:43:18.121Z,1.13
2023-03-28T17:45:44.829Z,1.20
2023-03-28T17:48:12.680Z,1.17
2023-03-28T17:50:39.352Z,1.40
2023-03-28T17:53:06.892Z,1.30
2023-03-28T17:55:34.045Z,1.40
2023-03-28T17:58:01.206Z,1.63
2023-03-28T18:00:30.273Z,1.45
2023-03-28T18:02:58.129Z,1.58
2023-03-28T18:05:41.217Z,1.63
2023-03-28T18:08:07.944Z,1.33
2023-03-28T18:10:34.694Z,1.60
2023-03-28T18:13:01.525Z,1.40
2023-03-28T18:15:28.233Z,1.40
2023-03-28T18:17:54.963Z,1.40
2023-03-28T18:20:23.818Z,1.20
2023-03-28T18:22:51.827Z,1.30
2023-03-28T18:25:18.536Z,1.33
2023-03-28T18:27:45.655Z,1.50
2023-03-28T18:30:12.892Z,1.35
2023-03-28T18:32:39.812Z,1.40
2023-03-28T18:35:07.374Z,1.40
2023-03-28T18:37:34.365Z,1.40
2023-03-28T18:40:01.807Z,1.40
2023-03-28T18:42:30.209Z,1.48
2023-03-28T18:44:57.197Z,1.50
2023-03-28T18:47:23.917Z,1.52
2023-03-28T18:49:50.809Z,1.80
2023-03-28T18:52:17.554Z,2.05
2023-03-28T18:54:46.764Z,2.53
2023-03-28T18:57:13.658Z,2.38
2023-03-28T18:59:40.558Z,2.38
2023-03-28T19:02:12.526Z,2.00
2023-03-28T19:04:39.777Z,2.00
2023-03-28T19:07:06.634Z,2.08
2023-03-28T19:09:33.393Z,2.00
2023-03-28T19:12:01.389Z,2.08
2023-03-28T19:14:28.267Z,2.00
2023-03-28T19:16:57.606Z,1.80
2023-03-28T19:19:24.965Z,1.63
2023-03-28T19:21:55.233Z,1.70
2023-03-28T19:24:22.326Z,1.63
2023-03-28T19:26:49.692Z,1.80
2023-03-28T19:29:16.999Z,2.78
2023-03-28T19:31:43.983Z,2.38
2023-03-28T19:34:18.648Z,2.00
2023-03-28T19:36:46.269Z,2.10
2023-03-28T19:39:13.599Z,2.78
2023-03-28T19:41:40.703Z,2.65
2023-03-28T19:44:07.483Z,2.33
2023-03-28T19:46:36.371Z,2.30
2023-03-28T19:49:06.442Z,2.08
2023-03-28T19:51:33.779Z,2.10
2023-03-28T19:54:00.789Z,1.95
2023-03-28T19:56:28.001Z,1.70
2023-03-28T19:58:54.713Z,2.00
2023-03-28T20:01:21.529Z,1.90
2023-03-28T20:03:52.589Z,1.80
2023-03-28T20:06:21.440Z,1.90
2023-03-28T20:08:48.349Z,2.17
2023-03-28T20:11:15.943Z,2.08
2023-03-28T20:13:43.854Z,2.10
2023-03-28T20:16:12.387Z,2.05
2023-03-28T20:18:39.681Z,2.20
2023-03-28T20:21:08.892Z,1.95
2023-03-28T20:23:36.371Z,2.10
2023-03-28T20:26:18.675Z,2.13
2023-03-28T20:28:49.623Z,1.98
2023-03-28T20:31:17.550Z,1.95
2023-03-28T20:33:45.064Z,1.70
2023-03-28T20:36:12.192Z,1.80
2023-03-28T20:38:38.955Z,1.88
2023-03-28T20:41:11.237Z,1.90
2023-03-28T20:43:40.670Z,1.90
2023-03-28T20:46:07.692Z,1.90
2023-03-28T20:48:34.572Z,2.03
2023-03-28T20:51:03.486Z,1.98
2023-03-28T20:53:31.108Z,1.80
2023-03-28T20:56:04.811Z,2.00
2023-03-28T20:58:32.448Z,1.75
2023-03-28T21:01:00.581Z,2.00
2023-03-28T21:03:49.820Z,2.00
2023-03-28T21:06:25.352Z,1.95
2023-03-28T21:08:59.104Z,2.08
2023-03-28T21:11:28.947Z,2.10
2023-03-28T21:13:57.274Z,1.67
2023-03-28T21:16:24.965Z,1.90
2023-03-28T21:18:52.103Z,1.90
2023-03-28T21:21:20.217Z,2.00
2023-03-28T21:23:47.713Z,2.20
2023-03-28T21:26:19.763Z,1.88
2023-03-28T21:28:46.905Z,1.77
2023-03-28T21:31:16.146Z,1.75
2023-03-28T21:33:43.098Z,1.95
2023-03-28T21:36:11.710Z,1.77
2023-03-28T21:38:39.240Z,1.73
2023-03-28T21:41:09.455Z,1.80
2023-03-28T21:43:36.389Z,1.70
2023-03-28T21:46:03.725Z,1.67
2023-03-28T21:48:31.155Z,1.67
2023-03-28T21:50:59.295Z,1.80
2023-03-28T21:53:28.115Z,1.95
2023-03-28T21:55:56.266Z,1.83
2023-03-28T21:58:23.906Z,2.13
2023-03-28T22:00:51.031Z,2.10
2023-03-28T22:03:18.255Z,1.63
2023-03-28T22:05:45.531Z,2.00
2023-03-28T22:08:13.240Z,1.85
2023-03-28T22:10:49.277Z,1.85
2023-03-28T22:13:16.347Z,1.65
2023-03-28T22:15:43.152Z,1.70
2023-03-28T22:18:11.344Z,1.80
2023-03-28T22:20:40.010Z,2.00
2023-03-28T22:23:07.528Z,1.95
2023-03-28T22:25:38.408Z,1.98
2023-03-28T22:28:10.030Z,2.00
2023-03-28T22:30:38.955Z,1.80
2023-03-28T22:33:06.712Z,2.13
2023-03-28T22:35:33.757Z,2.20
2023-03-28T22:38:01.081Z,1.83
2023-03-28T22:40:27.920Z,1.77
2023-03-28T22:42:54.643Z,1.80
2023-03-28T22:45:22.740Z,1.70
2023-03-28T22:47:50.363Z,1.77
2023-03-28T22:50:18.469Z,1.98
2023-03-28T22:52:52.885Z,1.98
2023-03-28T22:55:22.499Z,2.00
2023-03-28T22:57:51.662Z,1.70
2023-03-28T23:00:21.649Z,1.85
2023-03-28T23:02:49.298Z,1.70
2023-03-28T23:05:16.294Z,1.85
2023-03-28T23:07:42.949Z,1.98
2023-03-28T23:10:14.416Z,2.05
2023-03-28T23:12:42.242Z,2.03
2023-03-28T23:15:09.289Z,2.20
2023-03-28T23:17:36.417Z,17.35
2023-03-28T23:20:10.109Z,11.52
2023-03-28T23:22:37.120Z,4.05
2023-03-28T23:25:04.000Z,3.10
2023-03-28T23:27:30.872Z,3.10
2023-03-28T23:29:57.768Z,3.33
2023-03-28T23:32:24.485Z,3.28
2023-03-28T23:34:53.255Z,3.20
2023-03-28T23:37:20.522Z,3.10
2023-03-28T23:39:47.322Z,2.70
2023-03-28T23:42:14.075Z,2.50
2023-03-28T23:44:41.005Z,2.80
2023-03-28T23:47:07.953Z,2.90
2023-03-28T23:49:34.707Z,2.67
2023-03-28T23:52:01.373Z,2.35
2023-03-28T23:54:29.980Z,2.20
2023-03-28T23:56:57.591Z,2.33
2023-03-28T23:59:25.274Z,2.30
